Time;durP1;ratioP1;P1;durP2;ratioP2;P2;SDS_P1;SDS_P2;PMS_P1;PMS_P2;Temp;Humidity;BMP_temperature;BMP_pressure;BME280_temperature;BME280_humidity;BME280_pressure;Samples;Min_cycle;Max_cycle;Signal;HPM_P1;HPM_P2
2021/01/18 00:00:29;;;;;;;35.05;21.55;;;4.10;96.70;;;;;;4828549;29;20069;-73
2021/01/18 00:02:57;;;;;;;36.33;21.58;;;4.10;96.70;;;;;;4829147;29;20085;-72
2021/01/18 00:05:24;;;;;;;38.05;21.98;;;4.30;96.70;;;;;;4824141;29;20069;-72
2021/01/18 00:07:53;;;;;;;34.80;20.38;;;4.50;96.70;;;;;;4830015;29;20444;-73
2021/01/18 00:10:22;;;;;;;29.65;19.98;;;4.50;96.70;;;;;;4826541;29;20118;-72
2021/01/18 00:12:51;;;;;;;30.90;21.42;;;4.20;96.70;;;;;;4829501;29;20345;-72
2021/01/18 00:15:19;;;;;;;29.77;19.88;;;4.20;96.70;;;;;;4830341;29;20054;-72
2021/01/18 00:17:47;;;;;;;28.83;19.45;;;4.30;96.70;;;;;;4827285;29;20049;-72
2021/01/18 00:20:16;;;;;;;28.33;19.75;;;4.30;96.70;;;;;;4825386;29;20185;-72
2021/01/18 00:22:45;;;;;;;31.10;20.02;;;4.30;96.70;;;;;;4828887;29;20060;-73
2021/01/18 00:25:16;;;;;;;27.65;18.52;;;4.20;96.70;;;;;;4830949;29;20136;-73
2021/01/18 00:27:43;;;;;;;29.77;18.33;;;4.20;96.70;;;;;;4828485;29;20056;-72
2021/01/18 00:30:13;;;;;;;26.55;18.02;;;4.10;96.70;;;;;;4829092;29;20385;-73
2021/01/18 00:32:41;;;;;;;27.23;18.08;;;4.10;96.70;;;;;;4831667;29;20053;-73
2021/01/18 00:35:10;;;;;;;24.80;17.98;;;4.10;96.70;;;;;;4831039;29;20041;-72
2021/01/18 00:37:43;;;;;;;26.08;18.92;;;3.90;96.70;;;;;;4827379;29;20046;-73
2021/01/18 00:40:12;;;;;;;27.35;17.10;;;4.00;96.70;;;;;;4828548;29;20050;-72
2021/01/18 00:42:41;;;;;;;25.63;17.70;;;3.90;96.70;;;;;;4827042;29;20041;-72
2021/01/18 00:45:10;;;;;;;23.17;16.60;;;4.10;96.70;;;;;;4827814;29;20061;-72
2021/01/18 00:47:39;;;;;;;21.60;16.05;;;4.20;96.70;;;;;;4831948;29;20102;-73
2021/01/18 00:50:08;;;;;;;23.20;15.98;;;3.90;96.70;;;;;;4824304;29;20057;-72
2021/01/18 00:52:35;;;;;;;25.00;16.67;;;3.60;96.70;;;;;;4828363;29;20130;-72
2021/01/18 00:55:03;;;;;;;25.48;16.63;;;3.50;96.70;;;;;;4829097;29;20049;-73
2021/01/18 00:57:45;;;;;;;22.75;14.77;;;3.40;96.70;;;;;;4831562;29;20042;-73
2021/01/18 01:00:15;;;;;;;22.05;15.57;;;3.60;96.70;;;;;;4828603;29;20054;-73
2021/01/18 01:02:46;;;;;;;22.15;15.60;;;3.60;96.70;;;;;;4826450;29;21833;-72
2021/01/18 01:05:16;;;;;;;21.65;15.93;;;3.80;96.70;;;;;;4832589;29;20082;-72
2021/01/18 01:07:45;;;;;;;25.50;15.77;;;3.70;96.70;;;;;;4815659;29;20526;-72
2021/01/18 01:10:14;;;;;;;22.08;15.02;;;3.70;96.70;;;;;;4827016;29;20069;-72
2021/01/18 01:12:41;;;;;;;23.20;15.23;;;3.80;96.70;;;;;;4845770;29;20060;-73
2021/01/18 01:15:11;;;;;;;24.20;15.50;;;3.90;96.70;;;;;;4820143;29;20054;-72
2021/01/18 01:17:40;;;;;;;22.73;15.48;;;3.90;96.70;;;;;;4836100;29;20046;-72
2021/01/18 01:20:10;;;;;;;20.75;14.77;;;4.00;96.70;;;;;;4832297;29;20129;-73
2021/01/18 01:22:38;;;;;;;22.65;15.35;;;3.80;96.70;;;;;;4829352;29;20045;-72
2021/01/18 01:25:07;;;;;;;21.00;15.13;;;3.50;96.70;;;;;;4832646;29;20046;-73
2021/01/18 01:27:34;;;;;;;24.77;16.52;;;3.30;96.70;;;;;;4835107;29;20409;-73
2021/01/18 01:30:01;;;;;;;24.77;16.83;;;3.20;96.70;;;;;;4819454;29;21353;-72
2021/01/18 01:32:30;;;;;;;23.85;15.60;;;3.50;96.70;;;;;;4832060;29;20048;-72
2021/01/18 01:34:57;;;;;;;22.83;15.40;;;3.60;96.70;;;;;;4830624;29;20715;-73
2021/01/18 01:37:24;;;;;;;23.65;15.60;;;3.70;96.70;;;;;;4823290;29;20134;-73
2021/01/18 01:39:51;;;;;;;22.02;15.15;;;3.50;96.70;;;;;;4831931;29;20118;-72
2021/01/18 01:42:19;;;;;;;23.55;16.70;;;3.60;96.70;;;;;;4815076;29;20045;-73
2021/01/18 01:44:47;;;;;;;23.38;16.15;;;3.40;96.70;;;;;;4836229;29;20049;-72
2021/01/18 01:47:25;;;;;;;20.63;14.88;;;3.40;96.70;;;;;;4830012;29;20428;-72
2021/01/18 01:49:53;;;;;;;22.45;15.13;;;3.60;96.70;;;;;;4828807;29;20114;-72
2021/01/18 01:52:22;;;;;;;20.88;13.95;;;3.70;96.70;;;;;;4832507;29;20045;-73
2021/01/18 01:54:52;;;;;;;20.80;14.25;;;3.60;96.70;;;;;;4834251;29;20497;-72
2021/01/18 01:57:20;;;;;;;22.50;14.65;;;3.30;96.70;;;;;;4828443;29;20436;-72
2021/01/18 01:59:48;;;;;;;24.00;15.35;;;3.30;96.70;;;;;;4826576;29;20919;-73
2021/01/18 02:02:15;;;;;;;21.13;14.35;;;3.30;96.70;;;;;;4824392;29;20046;-73
2021/01/18 02:04:43;;;;;;;22.38;14.77;;;3.30;96.70;;;;;;4830236;29;20069;-72
2021/01/18 02:07:27;;;;;;;19.83;14.35;;;3.40;96.70;;;;;;4830723;29;20092;-73
2021/01/18 02:09:55;;;;;;;21.42;14.30;;;3.40;96.70;;;;;;4833720;29;20599;-72
2021/01/18 02:12:25;;;;;;;20.77;14.10;;;3.40;96.70;;;;;;4844628;29;20069;-73
2021/01/18 02:15:08;;;;;;;22.65;13.57;;;3.40;96.70;;;;;;4828968;29;20062;-73
2021/01/18 02:17:43;;;;;;;21.83;14.93;;;3.40;96.70;;;;;;4830024;29;20034;-72
2021/01/18 02:20:46;;;;;;;20.60;13.25;;;3.40;96.70;;;;;;4843905;29;20113;-72
2021/01/18 02:23:39;;;;;;;20.33;14.52;;;3.40;96.70;;;;;;4832368;29;20336;-74
2021/01/18 02:26:12;;;;;;;26.65;14.70;;;3.30;96.70;;;;;;4830194;29;20050;-71
2021/01/18 02:28:57;;;;;;;22.73;14.15;;;3.20;96.70;;;;;;4832841;29;20490;-71
2021/01/18 02:31:47;;;;;;;19.92;13.52;;;3.10;96.70;;;;;;4832839;29;20049;-71
2021/01/18 02:34:49;;;;;;;18.33;13.25;;;3.10;96.70;;;;;;4829491;29;20060;-74
2021/01/18 02:37:40;;;;;;;20.67;13.32;;;3.20;96.70;;;;;;4847173;29;20136;-73
2021/01/18 02:40:12;;;;;;;20.33;13.93;;;3.20;96.70;;;;;;4826187;29;20061;-74
2021/01/18 02:42:45;;;;;;;22.48;13.88;;;3.20;96.70;;;;;;4832344;29;20146;-71
2021/01/18 02:45:15;;;;;;;23.13;13.88;;;2.90;96.70;;;;;;4824526;29;20049;-71
2021/01/18 02:47:45;;;;;;;19.75;12.98;;;2.70;96.70;;;;;;4829277;29;20545;-71
2021/01/18 02:50:13;;;;;;;19.35;12.85;;;2.80;96.70;;;;;;4829041;29;20046;-71
2021/01/18 02:52:42;;;;;;;22.33;14.00;;;2.80;96.70;;;;;;4832980;29;20045;-71
2021/01/18 02:55:11;;;;;;;20.40;12.73;;;2.90;96.70;;;;;;4830132;29;20942;-71
2021/01/18 02:57:41;;;;;;;19.50;13.55;;;3.00;96.70;;;;;;4828909;29;20730;-71
2021/01/18 03:00:12;;;;;;;19.55;13.02;;;3.10;96.70;;;;;;4827465;29;20054;-71
2021/01/18 03:02:46;;;;;;;21.00;13.00;;;3.10;96.70;;;;;;4828272;29;20049;-71
2021/01/18 03:05:24;;;;;;;18.83;13.10;;;3.10;96.70;;;;;;4828749;29;20073;-71
2021/01/18 03:08:01;;;;;;;19.30;14.15;;;3.10;96.70;;;;;;4827050;29;20341;-71
2021/01/18 03:10:35;;;;;;;21.10;13.23;;;3.10;96.70;;;;;;4829416;29;20053;-72
2021/01/18 03:13:06;;;;;;;21.77;13.48;;;3.30;96.70;;;;;;4832182;29;20540;-72
2021/01/18 03:15:40;;;;;;;18.13;12.63;;;3.30;96.70;;;;;;4814848;29;20527;-72
2021/01/18 03:18:11;;;;;;;18.20;12.48;;;3.00;96.70;;;;;;4830365;29;20117;-72
2021/01/18 03:20:39;;;;;;;16.13;11.40;;;3.00;96.70;;;;;;4827344;29;20512;-72
2021/01/18 03:23:07;;;;;;;19.15;12.75;;;3.00;96.70;;;;;;4831089;29;20053;-71
2021/01/18 03:25:46;;;;;;;19.67;13.07;;;3.00;96.70;;;;;;4828405;29;20069;-71
2021/01/18 03:28:14;;;;;;;17.23;12.02;;;2.80;96.70;;;;;;4828965;29;20046;-72
2021/01/18 03:30:41;;;;;;;19.45;12.48;;;2.90;96.70;;;;;;4832916;29;20512;-72
2021/01/18 03:33:09;;;;;;;16.77;12.18;;;2.90;96.70;;;;;;4826271;29;20414;-72
2021/01/18 03:35:36;;;;;;;17.85;12.70;;;2.80;96.70;;;;;;4830066;29;20109;-72
2021/01/18 03:38:04;;;;;;;18.45;12.57;;;2.90;96.70;;;;;;4823822;29;20145;-72
2021/01/18 03:40:32;;;;;;;18.48;12.45;;;2.90;96.70;;;;;;4826666;29;20060;-71
2021/01/18 03:43:01;;;;;;;17.98;11.93;;;2.90;96.70;;;;;;4832036;29;20475;-71
2021/01/18 03:45:30;;;;;;;18.42;12.75;;;2.90;96.70;;;;;;4832755;29;20053;-72
2021/01/18 03:47:57;;;;;;;19.35;11.95;;;2.90;96.70;;;;;;4827378;29;20130;-71
2021/01/18 03:50:24;;;;;;;18.23;12.02;;;2.90;96.70;;;;;;4834427;29;20509;-72
2021/01/18 03:52:52;;;;;;;18.98;12.10;;;2.90;96.70;;;;;;4826921;29;20219;-72
2021/01/18 03:55:20;;;;;;;16.85;11.70;;;2.90;96.70;;;;;;4829211;29;20106;-72
2021/01/18 03:57:54;;;;;;;18.75;13.32;;;2.70;96.70;;;;;;4825930;29;20165;-72
2021/01/18 04:00:23;;;;;;;20.00;12.63;;;2.60;96.70;;;;;;4829516;29;20658;-72
2021/01/18 04:02:51;;;;;;;17.08;13.05;;;2.60;96.70;;;;;;4827800;29;20046;-72
2021/01/18 04:05:20;;;;;;;20.13;12.93;;;2.60;96.70;;;;;;4824931;29;20266;-71
2021/01/18 04:07:48;;;;;;;20.08;13.82;;;2.60;96.70;;;;;;4831016;29;20068;-72
2021/01/18 04:10:17;;;;;;;15.70;11.48;;;2.70;96.70;;;;;;4830194;29;20062;-72
2021/01/18 04:12:46;;;;;;;23.33;13.10;;;2.60;96.70;;;;;;4827452;29;20460;-72
2021/01/18 04:15:16;;;;;;;16.98;12.38;;;2.50;96.70;;;;;;4828624;29;20125;-72
2021/01/18 04:17:45;;;;;;;16.13;11.85;;;2.50;96.70;;;;;;4816540;29;20137;-72
2021/01/18 04:20:13;;;;;;;16.58;12.23;;;2.60;96.70;;;;;;4827944;29;20075;-72
2021/01/18 04:22:44;;;;;;;18.20;12.20;;;2.60;96.70;;;;;;4832068;29;20041;-72
2021/01/18 04:25:13;;;;;;;17.05;11.20;;;2.40;96.70;;;;;;4830034;29;20049;-72
2021/01/18 04:27:45;;;;;;;18.00;11.75;;;2.40;96.70;;;;;;4828271;29;20046;-72
2021/01/18 04:30:14;;;;;;;17.58;11.20;;;2.50;96.70;;;;;;4829573;29;20063;-72
2021/01/18 04:32:42;;;;;;;14.27;9.95;;;2.50;96.70;;;;;;4833867;29;20161;-72
2021/01/18 04:35:10;;;;;;;16.13;11.10;;;2.50;96.70;;;;;;4829692;29;20091;-72
2021/01/18 04:37:37;;;;;;;15.82;10.98;;;2.60;96.70;;;;;;4814908;29;20042;-71
2021/01/18 04:40:06;;;;;;;18.67;11.00;;;2.60;96.70;;;;;;4811346;29;20073;-72
2021/01/18 04:42:33;;;;;;;15.70;10.45;;;2.70;96.70;;;;;;4827211;29;20038;-72
2021/01/18 04:45:01;;;;;;;14.75;10.18;;;2.70;96.70;;;;;;4828603;29;20454;-72
2021/01/18 04:47:33;;;;;;;15.45;10.90;;;2.70;96.70;;;;;;4827546;29;20046;-71
2021/01/18 04:50:02;;;;;;;17.25;11.05;;;2.70;96.70;;;;;;4828621;29;20789;-72
2021/01/18 04:52:46;;;;;;;15.90;11.43;;;2.70;96.70;;;;;;4829075;29;20049;-72
2021/01/18 04:55:28;;;;;;;14.88;10.75;;;2.70;96.70;;;;;;4835113;29;20046;-72
2021/01/18 04:58:05;;;;;;;15.20;11.05;;;2.70;96.70;;;;;;4835851;29;20046;-72
2021/01/18 05:00:42;;;;;;;17.13;11.43;;;2.60;96.70;;;;;;4831142;29;20052;-72
2021/01/18 05:03:12;;;;;;;17.77;11.60;;;2.60;96.70;;;;;;4833065;29;20103;-72
2021/01/18 05:06:06;;;;;;;15.73;11.02;;;2.60;96.70;;;;;;4829254;29;20137;-72
2021/01/18 05:09:04;;;;;;;15.85;10.15;;;2.60;96.70;;;;;;4830301;29;20105;-72
2021/01/18 05:11:34;;;;;;;12.80;9.30;;;2.40;96.70;;;;;;4815892;29;20061;-72
2021/01/18 05:14:02;;;;;;;16.08;9.50;;;2.40;96.70;;;;;;4835824;29;20058;-72
2021/01/18 05:16:34;;;;;;;13.48;8.00;;;2.40;96.70;;;;;;4830298;29;20725;-72
2021/01/18 05:19:09;;;;;;;10.35;7.10;;;2.20;96.70;;;;;;4834552;29;20505;-72
2021/01/18 05:21:39;;;;;;;9.95;6.47;;;2.30;96.70;;;;;;4835348;29;20154;-72
2021/01/18 05:24:07;;;;;;;11.75;6.03;;;2.40;96.70;;;;;;4827585;29;20046;-72
2021/01/18 05:26:35;;;;;;;8.75;5.90;;;2.30;96.70;;;;;;4831017;29;20038;-71
2021/01/18 05:29:03;;;;;;;9.73;5.95;;;2.30;96.70;;;;;;4829274;29;20551;-72
2021/01/18 05:31:33;;;;;;;13.20;6.65;;;2.40;96.70;;;;;;4849092;29;20361;-73
2021/01/18 05:34:02;;;;;;;11.57;6.68;;;2.20;96.70;;;;;;4814334;29;20553;-71
2021/01/18 05:36:36;;;;;;;9.85;6.25;;;2.20;96.70;;;;;;4833271;29;20420;-72
2021/01/18 05:39:13;;;;;;;10.30;6.95;;;2.40;96.70;;;;;;4828949;29;20045;-71
2021/01/18 05:41:41;;;;;;;10.65;7.57;;;2.60;96.70;;;;;;4832769;29;20042;-71
2021/01/18 05:44:09;;;;;;;11.13;7.03;;;2.30;96.70;;;;;;4831593;29;20417;-71
2021/01/18 05:46:38;;;;;;;13.73;9.10;;;2.20;96.70;;;;;;4833850;29;20069;-71
2021/01/18 05:49:09;;;;;;;15.10;9.02;;;2.00;96.70;;;;;;4812613;29;20053;-71
2021/01/18 05:51:38;;;;;;;12.75;9.05;;;2.10;96.70;;;;;;4827780;29;20615;-71
2021/01/18 05:54:09;;;;;;;16.02;10.35;;;2.30;96.70;;;;;;4830413;29;20417;-71
2021/01/18 05:56:39;;;;;;;15.13;9.65;;;2.30;96.70;;;;;;4823714;29;20056;-71
2021/01/18 05:59:17;;;;;;;11.25;8.45;;;2.20;96.70;;;;;;4831917;29;20132;-71
2021/01/18 06:01:45;;;;;;;12.18;8.32;;;2.10;96.70;;;;;;4833818;29;20101;-71
2021/01/18 06:04:14;;;;;;;11.52;8.15;;;2.20;96.70;;;;;;4831830;29;20504;-72
2021/01/18 06:06:52;;;;;;;11.43;7.47;;;2.20;96.70;;;;;;4835152;29;20086;-71
2021/01/18 06:09:20;;;;;;;14.90;8.70;;;2.20;96.70;;;;;;4828985;29;20136;-71
2021/01/18 06:11:47;;;;;;;11.85;8.00;;;2.20;96.70;;;;;;4831821;29;20543;-71
2021/01/18 06:14:18;;;;;;;11.55;8.60;;;2.20;96.70;;;;;;4833119;29;20131;-71
2021/01/18 06:16:48;;;;;;;14.48;9.82;;;2.20;96.70;;;;;;4829533;29;20054;-71
2021/01/18 06:19:22;;;;;;;14.80;9.35;;;2.20;96.70;;;;;;4833458;29;20037;-71
2021/01/18 06:21:50;;;;;;;13.48;8.98;;;2.10;96.70;;;;;;4828475;29;20045;-71
2021/01/18 06:24:20;;;;;;;12.43;8.95;;;2.10;96.70;;;;;;4836621;29;20137;-71
2021/01/18 06:26:48;;;;;;;12.18;8.10;;;2.20;96.70;;;;;;4829565;29;20046;-71
2021/01/18 06:29:40;;;;;;;13.63;7.95;;;2.20;96.70;;;;;;4831384;29;20042;-71
2021/01/18 06:32:09;;;;;;;11.30;7.35;;;2.10;96.70;;;;;;4823949;29;20415;-71
2021/01/18 06:34:37;;;;;;;10.13;7.40;;;2.10;96.70;;;;;;4830570;29;20038;-71
2021/01/18 06:37:18;;;;;;;10.57;6.38;;;2.10;96.70;;;;;;4842929;29;20121;-71
2021/01/18 06:39:48;;;;;;;11.13;6.40;;;2.10;96.70;;;;;;4833024;29;20527;-71
2021/01/18 06:42:22;;;;;;;10.68;6.55;;;2.10;96.70;;;;;;4830835;29;20169;-71
2021/01/18 06:44:51;;;;;;;9.70;5.68;;;2.10;96.70;;;;;;4827129;29;20060;-71
2021/01/18 06:47:28;;;;;;;7.25;5.15;;;2.00;96.70;;;;;;4832699;29;20034;-71
2021/01/18 06:50:01;;;;;;;7.72;4.82;;;2.00;96.70;;;;;;4845353;29;20049;-71
2021/01/18 06:52:31;;;;;;;8.23;5.00;;;2.00;96.70;;;;;;4827724;29;20053;-71
2021/01/18 06:55:04;;;;;;;9.75;5.57;;;2.00;96.70;;;;;;4827521;29;20117;-71
2021/01/18 06:57:56;;;;;;;9.05;5.32;;;2.00;96.70;;;;;;4820331;29;20045;-71
2021/01/18 07:00:24;;;;;;;10.48;5.78;;;2.10;96.70;;;;;;4843788;29;20050;-71
2021/01/18 07:02:55;;;;;;;8.57;4.90;;;2.20;96.70;;;;;;4828888;29;20081;-71
2021/01/18 07:05:33;;;;;;;13.15;6.82;;;2.20;96.70;;;;;;4829538;29;20069;-70
2021/01/18 07:08:12;;;;;;;9.35;6.28;;;2.10;96.70;;;;;;4833014;29;20580;-71
2021/01/18 07:10:44;;;;;;;14.30;7.07;;;2.10;96.70;;;;;;4812489;29;20057;-71
2021/01/18 07:13:16;;;;;;;10.25;5.53;;;2.00;96.70;;;;;;4830328;29;20148;-71
2021/01/18 07:15:48;;;;;;;12.85;6.22;;;2.10;96.70;;;;;;4829832;29;20052;-71
2021/01/18 07:18:16;;;;;;;13.05;6.10;;;2.10;96.70;;;;;;4831317;29;20210;-72
2021/01/18 07:20:46;;;;;;;13.15;6.88;;;2.10;96.70;;;;;;4831275;29;20075;-71
2021/01/18 07:23:26;;;;;;;11.93;5.63;;;2.10;96.70;;;;;;4827802;29;20049;-71
2021/01/18 07:26:19;;;;;;;13.55;6.47;;;2.20;96.70;;;;;;4829771;29;20186;-71
2021/01/18 07:28:54;;;;;;;13.73;6.03;;;2.30;96.70;;;;;;4830017;29;20149;-71
2021/01/18 07:31:24;;;;;;;11.90;7.03;;;2.20;96.70;;;;;;4833305;29;20120;-71
2021/01/18 07:33:52;;;;;;;13.15;6.63;;;2.20;96.70;;;;;;4825351;29;20110;-71
2021/01/18 07:36:24;;;;;;;9.43;6.38;;;2.10;96.70;;;;;;4835077;29;20140;-71
2021/01/18 07:38:52;;;;;;;8.68;5.82;;;2.10;96.70;;;;;;4827624;29;20049;-71
2021/01/18 07:41:29;;;;;;;9.20;6.13;;;2.20;96.70;;;;;;4828709;29;20042;-71
2021/01/18 07:43:57;;;;;;;8.48;5.95;;;2.30;96.70;;;;;;4827392;29;20069;-71
2021/01/18 07:46:39;;;;;;;10.27;5.90;;;2.30;96.70;;;;;;4831524;29;20061;-71
2021/01/18 07:49:33;;;;;;;9.07;6.00;;;2.20;96.70;;;;;;4828261;29;20054;-71
2021/01/18 07:52:13;;;;;;;8.77;6.05;;;2.10;96.70;;;;;;4829613;29;20615;-71
2021/01/18 07:54:41;;;;;;;9.63;6.50;;;2.20;96.70;;;;;;4831290;29;20061;-71
2021/01/18 07:57:24;;;;;;;9.98;7.35;;;2.30;96.70;;;;;;4816630;29;20079;-71
2021/01/18 08:00:26;;;;;;;8.88;6.82;;;2.30;96.70;;;;;;4826459;29;20043;-71
2021/01/18 08:02:55;;;;;;;13.55;9.68;;;2.40;96.70;;;;;;4829470;29;20064;-71
2021/01/18 08:05:25;;;;;;;18.70;12.05;;;2.40;96.70;;;;;;4813857;29;20627;-71
2021/01/18 08:08:08;;;;;;;20.08;12.50;;;2.40;96.70;;;;;;4827307;29;20042;-73
2021/01/18 08:10:51;;;;;;;22.15;13.07;;;2.50;96.70;;;;;;4831614;29;20060;-71
2021/01/18 08:13:41;;;;;;;22.58;14.20;;;2.50;96.70;;;;;;4830190;29;20564;-71
2021/01/18 08:16:24;;;;;;;22.83;14.93;;;2.60;96.70;;;;;;4815600;29;20170;-71
2021/01/18 08:18:56;;;;;;;33.00;17.15;;;2.60;96.70;;;;;;4834448;29;20045;-71
2021/01/18 08:21:41;;;;;;;26.38;14.27;;;2.70;96.70;;;;;;4830576;29;20046;-71
2021/01/18 08:24:11;;;;;;;20.55;12.75;;;2.80;96.70;;;;;;4832189;29;20050;-71
2021/01/18 08:26:55;;;;;;;18.38;11.90;;;2.80;96.70;;;;;;4834097;29;20038;-71
2021/01/18 08:29:46;;;;;;;16.33;10.93;;;2.70;96.70;;;;;;4835504;29;20050;-71
2021/01/18 08:32:34;;;;;;;14.38;10.18;;;2.70;96.70;;;;;;4830944;29;20576;-71
2021/01/18 08:35:05;;;;;;;16.52;10.05;;;2.80;96.70;;;;;;4831550;29;20050;-72
2021/01/18 08:37:35;;;;;;;14.98;10.43;;;2.90;96.70;;;;;;4842465;29;20042;-71
2021/01/18 08:40:07;;;;;;;15.38;9.60;;;2.90;96.70;;;;;;4832752;29;20073;-72
2021/01/18 08:42:38;;;;;;;15.57;9.05;;;2.90;96.70;;;;;;4834895;29;20040;-72
2021/01/18 08:45:08;;;;;;;14.38;8.73;;;2.90;96.70;;;;;;4834533;29;20057;-71
2021/01/18 08:47:38;;;;;;;13.57;8.65;;;2.90;96.70;;;;;;4834074;29;20524;-72
2021/01/18 08:50:21;;;;;;;12.90;8.40;;;2.90;96.70;;;;;;4834374;29;20054;-73
2021/01/18 08:52:51;;;;;;;14.38;8.80;;;2.90;96.70;;;;;;4835957;29;20250;-73
2021/01/18 08:56:05;;;;;;;12.75;8.35;;;3.00;96.70;;;;;;4833490;29;20038;-72
2021/01/18 08:58:37;;;;;;;10.65;7.90;;;3.20;96.70;;;;;;4843652;29;20145;-74
2021/01/18 09:01:10;;;;;;;12.75;8.48;;;3.20;96.70;;;;;;4832581;29;20078;-72
2021/01/18 09:03:39;;;;;;;12.13;8.60;;;3.30;96.70;;;;;;4831924;29;20057;-72
2021/01/18 09:06:06;;;;;;;13.10;8.75;;;3.40;96.70;;;;;;4830744;29;20082;-72
2021/01/18 09:08:34;;;;;;;10.95;7.90;;;3.40;96.70;;;;;;4831078;29;20050;-75
2021/01/18 09:11:03;;;;;;;13.23;8.38;;;3.50;96.70;;;;;;4846874;29;20042;-72
2021/01/18 09:13:32;;;;;;;12.00;8.38;;;3.60;96.70;;;;;;4832178;29;20406;-72
2021/01/18 09:16:04;;;;;;;13.00;8.80;;;3.80;96.70;;;;;;4833303;29;20050;-72
2021/01/18 09:18:31;;;;;;;13.15;7.75;;;3.90;96.70;;;;;;4828214;29;20046;-72
2021/01/18 09:20:59;;;;;;;12.82;7.72;;;4.00;96.70;;;;;;4831925;29;20137;-72
2021/01/18 09:23:27;;;;;;;11.02;7.05;;;4.00;96.70;;;;;;4814814;29;20147;-73
2021/01/18 09:26:00;;;;;;;13.95;7.03;;;4.10;96.70;;;;;;4830301;29;20053;-74
2021/01/18 09:28:28;;;;;;;10.30;7.43;;;4.20;96.70;;;;;;4832733;29;20417;-73
2021/01/18 09:30:55;;;;;;;11.02;7.72;;;4.30;96.70;;;;;;4828963;29;20098;-73
2021/01/18 09:33:27;;;;;;;9.88;6.88;;;4.40;96.70;;;;;;4827754;29;20047;-74
2021/01/18 09:35:55;;;;;;;11.13;7.60;;;4.60;96.70;;;;;;4830343;29;20177;-73
2021/01/18 09:38:22;;;;;;;11.25;7.22;;;4.60;96.70;;;;;;4831545;29;20034;-73
2021/01/18 09:40:50;;;;;;;12.45;7.18;;;4.70;96.70;;;;;;4833588;29;20444;-74
2021/01/18 09:43:20;;;;;;;9.95;7.15;;;4.80;96.70;;;;;;4848481;29;20046;-74
2021/01/18 09:45:56;;;;;;;11.32;7.82;;;4.90;96.70;;;;;;4834052;29;20493;-75
2021/01/18 09:48:25;;;;;;;11.63;7.07;;;5.00;96.70;;;;;;4832270;29;20451;-74
2021/01/18 09:51:02;;;;;;;11.00;8.00;;;5.10;96.70;;;;;;4831651;29;20136;-74
2021/01/18 09:53:30;;;;;;;13.88;7.90;;;5.20;96.70;;;;;;4831070;29;20081;-74
2021/01/18 09:56:01;;;;;;;9.20;7.32;;;5.40;96.70;;;;;;4846148;29;20045;-74
2021/01/18 09:58:35;;;;;;;10.02;7.13;;;5.50;96.70;;;;;;4830423;29;20543;-75
2021/01/18 10:01:08;;;;;;;9.77;6.93;;;5.50;96.70;;;;;;4846124;29;20076;-74
2021/01/18 10:03:37;;;;;;;12.55;7.47;;;5.60;96.70;;;;;;4834035;29;20496;-74
2021/01/18 10:06:08;;;;;;;9.13;6.63;;;5.60;96.70;;;;;;4829523;29;20493;-74
2021/01/18 10:08:39;;;;;;;9.70;6.80;;;5.80;96.70;;;;;;4828317;29;20508;-74
2021/01/18 10:11:07;;;;;;;10.43;6.68;;;5.80;96.70;;;;;;4809228;29;20136;-73
2021/01/18 10:13:35;;;;;;;8.40;6.10;;;6.00;96.70;;;;;;4824737;29;20062;-74
2021/01/18 10:16:08;;;;;;;10.40;6.63;;;6.00;96.70;;;;;;4813214;29;20141;-74
2021/01/18 10:18:39;;;;;;;9.52;6.53;;;6.20;96.70;;;;;;4816732;29;20050;-74
2021/01/18 10:21:09;;;;;;;9.63;7.10;;;6.20;96.70;;;;;;4810184;29;20046;-74
2021/01/18 10:23:38;;;;;;;9.18;6.07;;;6.40;96.70;;;;;;4832859;29;20046;-75
2021/01/18 10:26:15;;;;;;;13.30;6.93;;;6.40;96.70;;;;;;4827909;29;20125;-74
2021/01/18 10:28:51;;;;;;;10.02;6.82;;;6.60;96.70;;;;;;4836048;29;20049;-73
2021/01/18 10:31:19;;;;;;;9.65;6.75;;;6.70;96.70;;;;;;4826799;29;20505;-75
2021/01/18 10:34:13;;;;;;;9.75;7.60;;;6.90;96.70;;;;;;4816694;29;20568;-75
2021/01/18 10:36:44;;;;;;;10.18;6.50;;;7.00;96.70;;;;;;4827393;29;20380;-74
2021/01/18 10:39:28;;;;;;;11.35;6.80;;;7.10;96.70;;;;;;4844498;29;20046;-73
2021/01/18 10:42:13;;;;;;;9.55;6.90;;;7.20;96.70;;;;;;4830511;29;20056;-73
2021/01/18 10:44:49;;;;;;;8.70;6.57;;;7.40;96.70;;;;;;4835241;29;20484;-74
2021/01/18 10:47:19;;;;;;;9.02;6.75;;;7.50;96.70;;;;;;4833042;29;20048;-75
2021/01/18 10:49:52;;;;;;;9.40;7.20;;;7.50;96.70;;;;;;4837909;29;20147;-75
2021/01/18 10:52:31;;;;;;;10.48;7.00;;;7.60;96.70;;;;;;4833938;29;20049;-74
2021/01/18 10:55:00;;;;;;;12.40;7.25;;;7.70;96.70;;;;;;4845281;29;20454;-74
2021/01/18 10:57:45;;;;;;;9.45;7.40;;;7.80;96.70;;;;;;4834310;29;20049;-74
2021/01/18 11:00:15;;;;;;;9.00;6.35;;;7.80;96.40;;;;;;4833598;29;20508;-74
2021/01/18 11:02:55;;;;;;;10.32;7.20;;;7.90;96.00;;;;;;4829663;29;20317;-74
2021/01/18 11:05:32;;;;;;;9.38;6.72;;;8.00;95.80;;;;;;4829574;29;20042;-73
2021/01/18 11:08:02;;;;;;;10.40;6.65;;;8.10;95.40;;;;;;4829378;29;20417;-73
2021/01/18 11:10:31;;;;;;;12.00;7.18;;;8.20;95.90;;;;;;4830378;29;20531;-74
2021/01/18 11:13:04;;;;;;;8.52;6.53;;;8.20;95.30;;;;;;4814044;29;20046;-73
2021/01/18 11:15:34;;;;;;;10.50;7.22;;;8.20;95.40;;;;;;4845553;29;20405;-74
2021/01/18 11:18:03;;;;;;;9.30;6.97;;;8.20;95.30;;;;;;4828220;29;20548;-73
2021/01/18 11:20:32;;;;;;;10.05;7.20;;;8.30;95.30;;;;;;4828133;29;20157;-73
2021/01/18 11:23:00;;;;;;;10.43;6.95;;;8.40;94.90;;;;;;4833665;29;20041;-74
2021/01/18 11:25:29;;;;;;;11.05;8.15;;;8.40;94.40;;;;;;4830938;29;20061;-73
2021/01/18 11:28:12;;;;;;;9.95;6.82;;;8.50;93.10;;;;;;4828674;29;20540;-74
2021/01/18 11:30:41;;;;;;;10.32;6.82;;;8.60;93.90;;;;;;4827642;29;20050;-73
2021/01/18 11:33:09;;;;;;;11.30;6.70;;;8.60;92.90;;;;;;4832173;29;20058;-74
2021/01/18 11:35:37;;;;;;;9.30;6.72;;;8.60;92.70;;;;;;4830159;29;20315;-74
2021/01/18 11:38:06;;;;;;;11.63;7.93;;;8.70;92.70;;;;;;4832025;29;20046;-73
2021/01/18 11:40:33;;;;;;;11.13;7.80;;;8.70;92.60;;;;;;4829823;29;20072;-73
2021/01/18 11:43:01;;;;;;;9.27;7.82;;;8.80;92.70;;;;;;4828902;29;20054;-74
2021/01/18 11:45:29;;;;;;;8.63;7.20;;;9.00;92.50;;;;;;4829106;29;20370;-74
2021/01/18 11:47:57;;;;;;;10.88;7.50;;;9.10;91.90;;;;;;4845556;29;20048;-74
2021/01/18 11:50:26;;;;;;;14.80;10.32;;;9.20;91.40;;;;;;4826815;29;20607;-72
2021/01/18 11:52:54;;;;;;;12.10;8.23;;;9.30;91.30;;;;;;4832279;29;20057;-74
2021/01/18 11:55:23;;;;;;;14.93;10.73;;;9.30;91.30;;;;;;4833370;29;20609;-74
2021/01/18 11:57:51;;;;;;;9.65;7.35;;;9.50;91.00;;;;;;4816084;29;20050;-74
2021/01/18 12:00:22;;;;;;;13.23;9.55;;;9.50;90.60;;;;;;4830548;29;20050;-74
2021/01/18 12:02:53;;;;;;;11.40;8.30;;;9.60;89.60;;;;;;4828643;29;20041;-74
2021/01/18 12:05:24;;;;;;;10.93;7.43;;;9.70;89.80;;;;;;4831418;29;20056;-74
2021/01/18 12:07:52;;;;;;;8.98;6.30;;;9.70;89.80;;;;;;4829701;29;20042;-74
2021/01/18 12:10:21;;;;;;;8.00;6.45;;;9.80;89.00;;;;;;4847005;29;20429;-75
2021/01/18 12:12:50;;;;;;;8.20;6.38;;;9.90;88.60;;;;;;4809327;29;20073;-74
2021/01/18 12:15:18;;;;;;;9.85;6.10;;;10.10;88.90;;;;;;4831547;29;20172;-74
2021/01/18 12:17:45;;;;;;;7.57;5.90;;;10.20;88.30;;;;;;4830275;29;20060;-74
2021/01/18 12:20:15;;;;;;;8.15;6.30;;;10.10;87.90;;;;;;4830933;29;20038;-74
2021/01/18 12:22:44;;;;;;;7.60;5.95;;;10.20;88.10;;;;;;4827684;29;20537;-74
2021/01/18 12:25:12;;;;;;;9.55;6.63;;;10.30;88.10;;;;;;4833523;29;20105;-75
2021/01/18 12:27:41;;;;;;;8.43;5.95;;;10.50;87.80;;;;;;4828854;29;20049;-74
2021/01/18 12:30:10;;;;;;;6.63;5.65;;;10.50;87.20;;;;;;4813464;29;20038;-75
2021/01/18 12:32:38;;;;;;;8.40;5.47;;;10.70;87.00;;;;;;4831704;29;20094;-75
2021/01/18 12:35:06;;;;;;;7.70;5.20;;;10.70;86.60;;;;;;4815051;29;20307;-75
2021/01/18 12:37:34;;;;;;;7.75;6.00;;;10.60;86.60;;;;;;4826506;29;20620;-74
2021/01/18 12:40:01;;;;;;;6.18;5.07;;;10.60;86.20;;;;;;4828557;29;20398;-75
2021/01/18 12:42:29;;;;;;;6.10;5.13;;;10.70;86.40;;;;;;4826871;29;20069;-75
2021/01/18 12:44:57;;;;;;;6.82;5.13;;;10.70;85.60;;;;;;4830982;29;20145;-74
2021/01/18 12:47:25;;;;;;;7.35;5.43;;;10.70;85.50;;;;;;4830168;29;20054;-74
2021/01/18 12:49:53;;;;;;;9.02;5.18;;;10.80;85.70;;;;;;4828841;29;20038;-74
2021/01/18 12:52:20;;;;;;;6.90;5.82;;;10.90;85.80;;;;;;4832006;29;20042;-74
2021/01/18 12:54:48;;;;;;;6.72;5.32;;;10.80;85.40;;;;;;4832674;29;20119;-74
2021/01/18 12:57:15;;;;;;;9.00;5.05;;;10.80;85.20;;;;;;4827567;29;20046;-74
2021/01/18 12:59:43;;;;;;;5.85;4.70;;;10.90;85.00;;;;;;4833161;29;20062;-75
2021/01/18 13:02:11;;;;;;;6.57;4.95;;;11.00;84.90;;;;;;4829024;29;20073;-75
2021/01/18 13:04:40;;;;;;;8.05;5.82;;;11.00;84.50;;;;;;4826699;29;20042;-75
2021/01/18 13:07:08;;;;;;;6.88;5.45;;;11.10;84.70;;;;;;4830577;29;20046;-75